sensor_id;sensor_type;location;lat;lon;timestamp;temperature;humidity
3752;DHT22;50827;47.014;7.652;2024-02-21T00:00:11;5.60;99.90
3752;DHT22;50827;47.014;7.652;2024-02-21T00:02:38;5.50;99.90
3752;DHT22;50827;47.014;7.652;2024-02-21T00:05:05;5.40;99.90
3752;DHT22;50827;47.014;7.652;2024-02-21T00:07:32;5.40;99.90
3752;DHT22;50827;47.014;7.652;2024-02-21T00:09:59;5.40;99.90
3752;DHT22;50827;47.014;7.652;2024-02-21T00:12:27;5.30;99.90
3752;DHT22;50827;47.014;7.652;2024-02-21T00:14:53;5.30;99.90
3752;DHT22;50827;47.014;7.652;2024-02-21T00:17:20;5.30;99.90
3752;DHT22;50827;47.014;7.652;2024-02-21T00:19:47;5.30;99.90
3752;DHT22;50827;47.014;7.652;2024-02-21T00:22:13;5.30;99.90
3752;DHT22;50827;47.014;7.652;2024-02-21T00:24:40;5.30;99.90
3752;DHT22;50827;47.014;7.652;2024-02-21T00:27:07;5.30;99.90
3752;DHT22;50827;47.014;7.652;2024-02-21T00:29:33;5.30;99.90
3752;DHT22;50827;47.014;7.652;2024-02-21T00:32:01;5.30;99.90
3752;DHT22;50827;47.014;7.652;2024-02-21T00:34:28;5.30;99.90
3752;DHT22;50827;47.014;7.652;2024-02-21T00:36:54;5.30;99.90
3752;DHT22;50827;47.014;7.652;2024-02-21T00:39:21;5.30;99.90
3752;DHT22;50827;47.014;7.652;2024-02-21T00:41:48;5.30;99.90
3752;DHT22;50827;47.014;7.652;2024-02-21T00:44:15;5.30;99.90
3752;DHT22;50827;47.014;7.652;2024-02-21T00:46:41;5.30;99.90
3752;DHT22;50827;47.014;7.652;2024-02-21T00:49:08;5.40;99.90
3752;DHT22;50827;47.014;7.652;2024-02-21T00:51:35;5.40;99.90
3752;DHT22;50827;47.014;7.652;2024-02-21T00:54:02;5.40;99.90
3752;DHT22;50827;47.014;7.652;2024-02-21T00:56:29;5.50;99.90
3752;DHT22;50827;47.014;7.652;2024-02-21T00:58:56;5.40;99.90
3752;DHT22;50827;47.014;7.652;2024-02-21T01:01:26;5.40;99.90
3752;DHT22;50827;47.014;7.652;2024-02-21T01:03:53;5.50;99.90
3752;DHT22;50827;47.014;7.652;2024-02-21T01:06:20;5.50;99.90
3752;DHT22;50827;47.014;7.652;2024-02-21T01:08:48;5.50;99.90
3752;DHT22;50827;47.014;7.652;2024-02-21T01:11:15;5.50;99.90
3752;DHT22;50827;47.014;7.652;2024-02-21T01:13:42;5.50;99.90
3752;DHT22;50827;47.014;7.652;2024-02-21T01:16:09;5.50;99.90
3752;DHT22;50827;47.014;7.652;2024-02-21T01:18:39;5.50;99.90
3752;DHT22;50827;47.014;7.652;2024-02-21T01:21:07;5.50;99.90
3752;DHT22;50827;47.014;7.652;2024-02-21T01:23:35;5.50;99.90
3752;DHT22;50827;47.014;7.652;2024-02-21T01:26:02;5.40;99.90
3752;DHT22;50827;47.014;7.652;2024-02-21T01:28:30;5.50;99.90
3752;DHT22;50827;47.014;7.652;2024-02-21T01:30:59;5.50;99.90
3752;DHT22;50827;47.014;7.652;2024-02-21T01:33:26;5.50;99.90
3752;DHT22;50827;47.014;7.652;2024-02-21T01:35:53;5.60;99.90
3752;DHT22;50827;47.014;7.652;2024-02-21T01:38:20;5.60;99.90
3752;DHT22;50827;47.014;7.652;2024-02-21T01:40:47;5.50;99.90
3752;DHT22;50827;47.014;7.652;2024-02-21T01:43:19;5.50;99.90
3752;DHT22;50827;47.014;7.652;2024-02-21T01:45:57;5.50;99.90
3752;DHT22;50827;47.014;7.652;2024-02-21T01:48:24;5.50;99.90
3752;DHT22;50827;47.014;7.652;2024-02-21T01:50:54;5.50;99.90
3752;DHT22;50827;47.014;7.652;2024-02-21T01:53:23;5.50;99.90
3752;DHT22;50827;47.014;7.652;2024-02-21T01:55:51;5.40;99.90
3752;DHT22;50827;47.014;7.652;2024-02-21T01:58:19;5.40;99.90
3752;DHT22;50827;47.014;7.652;2024-02-21T02:00:47;5.30;99.90
3752;DHT22;50827;47.014;7.652;2024-02-21T02:03:14;5.30;99.90
3752;DHT22;50827;47.014;7.652;2024-02-21T02:05:49;5.30;99.90
3752;DHT22;50827;47.014;7.652;2024-02-21T02:08:18;5.30;99.90
3752;DHT22;50827;47.014;7.652;2024-02-21T02:10:45;5.20;99.90
3752;DHT22;50827;47.014;7.652;2024-02-21T02:13:12;5.30;99.90
3752;DHT22;50827;47.014;7.652;2024-02-21T02:15:41;5.30;99.90
3752;DHT22;50827;47.014;7.652;2024-02-21T02:18:08;5.20;99.90
3752;DHT22;50827;47.014;7.652;2024-02-21T02:20:36;5.20;99.90
3752;DHT22;50827;47.014;7.652;2024-02-21T02:25:51;5.10;99.90
3752;DHT22;50827;47.014;7.652;2024-02-21T02:28:21;5.10;99.90
3752;DHT22;50827;47.014;7.652;2024-02-21T02:30:49;5.10;99.90
3752;DHT22;50827;47.014;7.652;2024-02-21T02:33:16;5.10;99.90
3752;DHT22;50827;47.014;7.652;2024-02-21T02:35:46;5.10;99.90
3752;DHT22;50827;47.014;7.652;2024-02-21T02:38:13;5.10;99.90
3752;DHT22;50827;47.014;7.652;2024-02-21T02:40:41;5.10;99.90
3752;DHT22;50827;47.014;7.652;2024-02-21T02:43:08;5.00;99.90
3752;DHT22;50827;47.014;7.652;2024-02-21T02:45:35;5.10;99.90
3752;DHT22;50827;47.014;7.652;2024-02-21T02:48:02;5.10;99.90
3752;DHT22;50827;47.014;7.652;2024-02-21T02:50:29;5.10;99.90
3752;DHT22;50827;47.014;7.652;2024-02-21T02:52:56;5.00;99.90
3752;DHT22;50827;47.014;7.652;2024-02-21T02:55:23;5.10;99.90
3752;DHT22;50827;47.014;7.652;2024-02-21T02:57:50;5.00;99.90
3752;DHT22;50827;47.014;7.652;2024-02-21T03:00:17;5.00;99.90
3752;DHT22;50827;47.014;7.652;2024-02-21T03:02:46;5.10;99.90
3752;DHT22;50827;47.014;7.652;2024-02-21T03:05:18;5.10;99.90
3752;DHT22;50827;47.014;7.652;2024-02-21T03:07:46;5.10;99.90
3752;DHT22;50827;47.014;7.652;2024-02-21T03:10:13;5.10;99.90
3752;DHT22;50827;47.014;7.652;2024-02-21T03:12:40;5.00;99.90
3752;DHT22;50827;47.014;7.652;2024-02-21T03:15:08;5.10;99.90
3752;DHT22;50827;47.014;7.652;2024-02-21T03:17:35;5.00;99.90
3752;DHT22;50827;47.014;7.652;2024-02-21T03:20:05;5.10;99.90
3752;DHT22;50827;47.014;7.652;2024-02-21T03:22:35;5.00;99.90
3752;DHT22;50827;47.014;7.652;2024-02-21T03:25:02;5.00;99.90
3752;DHT22;50827;47.014;7.652;2024-02-21T03:27:29;5.00;99.90
3752;DHT22;50827;47.014;7.652;2024-02-21T03:29:56;4.90;99.90
3752;DHT22;50827;47.014;7.652;2024-02-21T03:32:23;4.80;99.90
3752;DHT22;50827;47.014;7.652;2024-02-21T03:34:49;4.90;99.90
3752;DHT22;50827;47.014;7.652;2024-02-21T03:37:16;4.90;99.90
3752;DHT22;50827;47.014;7.652;2024-02-21T03:39:43;4.90;99.90
3752;DHT22;50827;47.014;7.652;2024-02-21T03:42:10;4.90;99.90
3752;DHT22;50827;47.014;7.652;2024-02-21T03:44:36;4.90;99.90
3752;DHT22;50827;47.014;7.652;2024-02-21T03:47:03;5.00;99.90
3752;DHT22;50827;47.014;7.652;2024-02-21T03:49:30;5.00;99.90
3752;DHT22;50827;47.014;7.652;2024-02-21T03:51:57;4.90;99.90
3752;DHT22;50827;47.014;7.652;2024-02-21T03:54:24;5.00;99.90
3752;DHT22;50827;47.014;7.652;2024-02-21T03:56:51;5.00;99.90
3752;DHT22;50827;47.014;7.652;2024-02-21T03:59:17;5.00;99.90
3752;DHT22;50827;47.014;7.652;2024-02-21T04:01:44;4.90;99.90
3752;DHT22;50827;47.014;7.652;2024-02-21T04:04:11;4.90;99.90
3752;DHT22;50827;47.014;7.652;2024-02-21T04:06:47;4.90;99.90
3752;DHT22;50827;47.014;7.652;2024-02-21T04:09:14;4.90;99.90
3752;DHT22;50827;47.014;7.652;2024-02-21T04:11:40;4.90;99.90
3752;DHT22;50827;47.014;7.652;2024-02-21T04:14:07;4.90;99.90
3752;DHT22;50827;47.014;7.652;2024-02-21T04:16:34;4.80;99.90
3752;DHT22;50827;47.014;7.652;2024-02-21T04:19:01;4.70;99.90
3752;DHT22;50827;47.014;7.652;2024-02-21T04:21:29;4.80;99.90
3752;DHT22;50827;47.014;7.652;2024-02-21T04:23:56;4.70;99.90
3752;DHT22;50827;47.014;7.652;2024-02-21T04:26:22;4.70;99.90
3752;DHT22;50827;47.014;7.652;2024-02-21T04:28:49;4.70;99.90
3752;DHT22;50827;47.014;7.652;2024-02-21T04:31:16;4.70;99.90
3752;DHT22;50827;47.014;7.652;2024-02-21T04:33:43;4.70;99.90
3752;DHT22;50827;47.014;7.652;2024-02-21T04:36:10;4.60;99.90
3752;DHT22;50827;47.014;7.652;2024-02-21T04:38:36;4.60;99.90
3752;DHT22;50827;47.014;7.652;2024-02-21T04:41:05;4.60;99.90
3752;DHT22;50827;47.014;7.652;2024-02-21T04:43:32;4.60;99.90
3752;DHT22;50827;47.014;7.652;2024-02-21T04:45:59;4.60;99.90
3752;DHT22;50827;47.014;7.652;2024-02-21T04:48:26;4.60;99.90
3752;DHT22;50827;47.014;7.652;2024-02-21T04:50:53;4.60;99.90
3752;DHT22;50827;47.014;7.652;2024-02-21T04:53:20;4.60;99.90
3752;DHT22;50827;47.014;7.652;2024-02-21T04:55:47;4.50;99.90
3752;DHT22;50827;47.014;7.652;2024-02-21T04:58:13;4.50;99.90
3752;DHT22;50827;47.014;7.652;2024-02-21T05:00:40;4.50;99.90
3752;DHT22;50827;47.014;7.652;2024-02-21T05:03:07;4.50;99.90
3752;DHT22;50827;47.014;7.652;2024-02-21T05:05:34;4.40;99.90
3752;DHT22;50827;47.014;7.652;2024-02-21T05:08:01;4.50;99.90
3752;DHT22;50827;47.014;7.652;2024-02-21T05:10:28;4.50;99.90
3752;DHT22;50827;47.014;7.652;2024-02-21T05:12:55;4.40;99.90
3752;DHT22;50827;47.014;7.652;2024-02-21T05:15:21;4.50;99.90
3752;DHT22;50827;47.014;7.652;2024-02-21T05:17:48;4.50;99.90
3752;DHT22;50827;47.014;7.652;2024-02-21T05:20:15;4.50;99.90
3752;DHT22;50827;47.014;7.652;2024-02-21T05:22:42;4.50;99.90
3752;DHT22;50827;47.014;7.652;2024-02-21T05:25:09;4.50;99.90
3752;DHT22;50827;47.014;7.652;2024-02-21T05:27:36;4.50;99.90
3752;DHT22;50827;47.014;7.652;2024-02-21T05:30:04;4.50;99.90
3752;DHT22;50827;47.014;7.652;2024-02-21T05:32:33;4.40;99.90
3752;DHT22;50827;47.014;7.652;2024-02-21T05:35:00;4.40;99.90
3752;DHT22;50827;47.014;7.652;2024-02-21T05:37:27;4.40;99.90
3752;DHT22;50827;47.014;7.652;2024-02-21T05:39:54;4.40;99.90
3752;DHT22;50827;47.014;7.652;2024-02-21T05:42:20;4.40;99.90
3752;DHT22;50827;47.014;7.652;2024-02-21T05:44:47;4.40;99.90
3752;DHT22;50827;47.014;7.652;2024-02-21T05:47:14;4.40;99.90
3752;DHT22;50827;47.014;7.652;2024-02-21T05:49:42;4.40;99.90
3752;DHT22;50827;47.014;7.652;2024-02-21T05:52:09;4.40;99.90
3752;DHT22;50827;47.014;7.652;2024-02-21T05:54:38;4.40;99.90
3752;DHT22;50827;47.014;7.652;2024-02-21T05:57:08;4.40;99.90
3752;DHT22;50827;47.014;7.652;2024-02-21T05:59:37;4.40;99.90
3752;DHT22;50827;47.014;7.652;2024-02-21T06:02:06;4.50;99.90
3752;DHT22;50827;47.014;7.652;2024-02-21T06:04:33;4.40;99.90
3752;DHT22;50827;47.014;7.652;2024-02-21T06:07:01;4.40;99.90
3752;DHT22;50827;47.014;7.652;2024-02-21T06:09:28;4.40;99.90
3752;DHT22;50827;47.014;7.652;2024-02-21T06:11:55;4.40;99.90
3752;DHT22;50827;47.014;7.652;2024-02-21T06:14:21;4.40;99.90
3752;DHT22;50827;47.014;7.652;2024-02-21T06:16:48;4.40;99.90
3752;DHT22;50827;47.014;7.652;2024-02-21T06:19:15;4.40;99.90
3752;DHT22;50827;47.014;7.652;2024-02-21T06:21:42;4.40;99.90
3752;DHT22;50827;47.014;7.652;2024-02-21T06:24:09;4.40;99.90
3752;DHT22;50827;47.014;7.652;2024-02-21T06:26:35;4.30;99.90
3752;DHT22;50827;47.014;7.652;2024-02-21T06:29:02;4.30;99.90
3752;DHT22;50827;47.014;7.652;2024-02-21T06:31:30;4.30;99.90
3752;DHT22;50827;47.014;7.652;2024-02-21T06:33:58;4.30;99.90
3752;DHT22;50827;47.014;7.652;2024-02-21T06:36:25;4.20;99.90
3752;DHT22;50827;47.014;7.652;2024-02-21T06:38:51;4.30;99.90
3752;DHT22;50827;47.014;7.652;2024-02-21T06:41:19;4.30;99.90
3752;DHT22;50827;47.014;7.652;2024-02-21T06:43:47;4.20;99.90
3752;DHT22;50827;47.014;7.652;2024-02-21T06:48:51;4.20;99.90
3752;DHT22;50827;47.014;7.652;2024-02-21T06:51:18;4.20;99.90
3752;DHT22;50827;47.014;7.652;2024-02-21T06:53:45;4.20;99.90
3752;DHT22;50827;47.014;7.652;2024-02-21T06:56:12;4.20;99.90
3752;DHT22;50827;47.014;7.652;2024-02-21T06:58:39;4.20;99.90
3752;DHT22;50827;47.014;7.652;2024-02-21T07:01:06;4.20;99.90
3752;DHT22;50827;47.014;7.652;2024-02-21T07:03:33;4.20;99.90
3752;DHT22;50827;47.014;7.652;2024-02-21T07:06:00;4.20;99.90
3752;DHT22;50827;47.014;7.652;2024-02-21T07:08:27;4.10;99.90
3752;DHT22;50827;47.014;7.652;2024-02-21T07:10:54;4.20;99.90
3752;DHT22;50827;47.014;7.652;2024-02-21T07:13:21;4.20;99.90
3752;DHT22;50827;47.014;7.652;2024-02-21T07:15:49;4.20;99.90
3752;DHT22;50827;47.014;7.652;2024-02-21T07:18:16;4.20;99.90
3752;DHT22;50827;47.014;7.652;2024-02-21T07:20:43;4.20;99.90
3752;DHT22;50827;47.014;7.652;2024-02-21T07:23:10;4.20;99.90
3752;DHT22;50827;47.014;7.652;2024-02-21T07:25:36;4.10;99.90
3752;DHT22;50827;47.014;7.652;2024-02-21T07:28:03;4.20;99.90
3752;DHT22;50827;47.014;7.652;2024-02-21T07:30:30;4.20;99.90
3752;DHT22;50827;47.014;7.652;2024-02-21T07:32:57;4.20;99.90
3752;DHT22;50827;47.014;7.652;2024-02-21T07:35:24;4.20;99.90
3752;DHT22;50827;47.014;7.652;2024-02-21T07:37:51;4.20;99.90
3752;DHT22;50827;47.014;7.652;2024-02-21T07:40:18;4.30;99.90
3752;DHT22;50827;47.014;7.652;2024-02-21T07:42:45;4.30;99.90
3752;DHT22;50827;47.014;7.652;2024-02-21T07:45:17;4.40;99.90
3752;DHT22;50827;47.014;7.652;2024-02-21T07:47:45;4.40;99.90
3752;DHT22;50827;47.014;7.652;2024-02-21T07:50:12;4.50;99.90
3752;DHT22;50827;47.014;7.652;2024-02-21T07:52:39;4.50;99.90
3752;DHT22;50827;47.014;7.652;2024-02-21T07:55:06;4.60;99.90
3752;DHT22;50827;47.014;7.652;2024-02-21T07:57:33;4.70;99.90
3752;DHT22;50827;47.014;7.652;2024-02-21T07:59:59;4.70;99.90
3752;DHT22;50827;47.014;7.652;2024-02-21T08:02:26;4.70;99.90
3752;DHT22;50827;47.014;7.652;2024-02-21T08:04:53;4.70;99.90
3752;DHT22;50827;47.014;7.652;2024-02-21T08:07:20;4.80;99.90
3752;DHT22;50827;47.014;7.652;2024-02-21T08:09:47;4.80;99.90
3752;DHT22;50827;47.014;7.652;2024-02-21T08:12:13;4.90;99.90
3752;DHT22;50827;47.014;7.652;2024-02-21T08:14:40;4.90;99.90
3752;DHT22;50827;47.014;7.652;2024-02-21T08:17:07;5.00;99.90
3752;DHT22;50827;47.014;7.652;2024-02-21T08:19:34;5.00;99.90
3752;DHT22;50827;47.014;7.652;2024-02-21T08:22:01;5.00;99.90
3752;DHT22;50827;47.014;7.652;2024-02-21T08:24:27;5.00;99.90
3752;DHT22;50827;47.014;7.652;2024-02-21T08:26:54;5.10;99.90
3752;DHT22;50827;47.014;7.652;2024-02-21T08:29:21;5.20;99.90
3752;DHT22;50827;47.014;7.652;2024-02-21T08:31:48;5.30;99.90
3752;DHT22;50827;47.014;7.652;2024-02-21T08:34:15;5.30;99.90
3752;DHT22;50827;47.014;7.652;2024-02-21T08:36:43;5.40;99.90
3752;DHT22;50827;47.014;7.652;2024-02-21T08:39:10;5.50;99.90
3752;DHT22;50827;47.014;7.652;2024-02-21T08:41:37;5.50;99.90
3752;DHT22;50827;47.014;7.652;2024-02-21T08:44:23;5.60;99.90
3752;DHT22;50827;47.014;7.652;2024-02-21T08:46:52;5.70;99.90
3752;DHT22;50827;47.014;7.652;2024-02-21T08:49:19;5.80;99.90
3752;DHT22;50827;47.014;7.652;2024-02-21T08:51:46;5.80;99.90
3752;DHT22;50827;47.014;7.652;2024-02-21T08:54:13;5.90;99.90
3752;DHT22;50827;47.014;7.652;2024-02-21T08:56:40;5.90;99.90
3752;DHT22;50827;47.014;7.652;2024-02-21T08:59:07;5.90;99.90
3752;DHT22;50827;47.014;7.652;2024-02-21T09:01:33;6.00;99.90
3752;DHT22;50827;47.014;7.652;2024-02-21T09:04:01;6.10;99.90
3752;DHT22;50827;47.014;7.652;2024-02-21T09:06:29;6.10;99.90
3752;DHT22;50827;47.014;7.652;2024-02-21T09:08:57;6.20;99.90
3752;DHT22;50827;47.014;7.652;2024-02-21T09:11:24;6.30;99.90
3752;DHT22;50827;47.014;7.652;2024-02-21T09:13:51;6.30;99.90
3752;DHT22;50827;47.014;7.652;2024-02-21T09:16:18;6.40;99.90
3752;DHT22;50827;47.014;7.652;2024-02-21T09:18:45;6.50;99.90
3752;DHT22;50827;47.014;7.652;2024-02-21T09:21:13;6.50;99.90
3752;DHT22;50827;47.014;7.652;2024-02-21T09:23:39;6.60;99.90
3752;DHT22;50827;47.014;7.652;2024-02-21T09:26:06;6.70;99.90
3752;DHT22;50827;47.014;7.652;2024-02-21T09:28:34;6.70;99.90
3752;DHT22;50827;47.014;7.652;2024-02-21T09:31:01;6.80;99.90
3752;DHT22;50827;47.014;7.652;2024-02-21T09:33:28;6.80;99.90
3752;DHT22;50827;47.014;7.652;2024-02-21T09:35:58;6.90;99.90
3752;DHT22;50827;47.014;7.652;2024-02-21T09:38:25;7.00;99.90
3752;DHT22;50827;47.014;7.652;2024-02-21T09:41:18;7.00;99.90
3752;DHT22;50827;47.014;7.652;2024-02-21T09:43:52;7.10;99.90
3752;DHT22;50827;47.014;7.652;2024-02-21T09:46:26;7.10;99.90
3752;DHT22;50827;47.014;7.652;2024-02-21T09:51:31;7.20;99.90
3752;DHT22;50827;47.014;7.652;2024-02-21T09:53:59;7.20;99.90
3752;DHT22;50827;47.014;7.652;2024-02-21T09:56:41;7.30;99.90
3752;DHT22;50827;47.014;7.652;2024-02-21T09:59:08;7.40;99.90
3752;DHT22;50827;47.014;7.652;2024-02-21T10:01:35;7.40;99.90
3752;DHT22;50827;47.014;7.652;2024-02-21T10:04:02;7.50;99.90
3752;DHT22;50827;47.014;7.652;2024-02-21T10:06:32;7.60;99.90
3752;DHT22;50827;47.014;7.652;2024-02-21T10:08:59;7.60;99.90
3752;DHT22;50827;47.014;7.652;2024-02-21T10:11:26;7.70;99.90
3752;DHT22;50827;47.014;7.652;2024-02-21T10:14:06;7.80;99.90
3752;DHT22;50827;47.014;7.652;2024-02-21T10:16:34;7.80;99.90
3752;DHT22;50827;47.014;7.652;2024-02-21T10:19:01;7.90;99.90
3752;DHT22;50827;47.014;7.652;2024-02-21T10:21:27;8.00;99.90
3752;DHT22;50827;47.014;7.652;2024-02-21T10:23:54;8.00;99.90
3752;DHT22;50827;47.014;7.652;2024-02-21T10:26:21;8.10;99.90
3752;DHT22;50827;47.014;7.652;2024-02-21T10:28:48;8.20;99.90
3752;DHT22;50827;47.014;7.652;2024-02-21T10:31:23;8.20;99.90
3752;DHT22;50827;47.014;7.652;2024-02-21T10:33:58;8.30;99.90
3752;DHT22;50827;47.014;7.652;2024-02-21T10:36:26;8.30;99.90
3752;DHT22;50827;47.014;7.652;2024-02-21T10:38:53;8.40;99.90
3752;DHT22;50827;47.014;7.652;2024-02-21T10:41:22;8.50;99.90
3752;DHT22;50827;47.014;7.652;2024-02-21T10:43:50;8.50;99.90
3752;DHT22;50827;47.014;7.652;2024-02-21T10:46:23;8.50;99.90
3752;DHT22;50827;47.014;7.652;2024-02-21T10:49:06;8.60;99.90
3752;DHT22;50827;47.014;7.652;2024-02-21T10:51:34;8.70;99.90
3752;DHT22;50827;47.014;7.652;2024-02-21T10:56:50;8.80;99.90
3752;DHT22;50827;47.014;7.652;2024-02-21T10:59:17;8.90;99.90
3752;DHT22;50827;47.014;7.652;2024-02-21T11:01:44;8.90;99.90
3752;DHT22;50827;47.014;7.652;2024-02-21T11:04:11;9.00;99.90
3752;DHT22;50827;47.014;7.652;2024-02-21T11:06:41;9.10;99.90
3752;DHT22;50827;47.014;7.652;2024-02-21T11:09:10;9.10;99.90
3752;DHT22;50827;47.014;7.652;2024-02-21T11:11:43;9.20;99.90
3752;DHT22;50827;47.014;7.652;2024-02-21T11:14:18;9.20;99.90
3752;DHT22;50827;47.014;7.652;2024-02-21T11:16:45;9.30;99.90
3752;DHT22;50827;47.014;7.652;2024-02-21T11:19:26;9.40;99.90
3752;DHT22;50827;47.014;7.652;2024-02-21T11:21:54;9.40;99.90
3752;DHT22;50827;47.014;7.652;2024-02-21T11:24:32;9.50;99.90
3752;DHT22;50827;47.014;7.652;2024-02-21T11:27:15;9.60;99.90
3752;DHT22;50827;47.014;7.652;2024-02-21T11:29:43;9.60;99.90
3752;DHT22;50827;47.014;7.652;2024-02-21T11:32:11;9.70;99.90
3752;DHT22;50827;47.014;7.652;2024-02-21T11:34:38;9.70;99.90
3752;DHT22;50827;47.014;7.652;2024-02-21T11:37:14;9.80;99.90
3752;DHT22;50827;47.014;7.652;2024-02-21T11:39:44;9.80;99.90
3752;DHT22;50827;47.014;7.652;2024-02-21T11:42:10;9.80;99.90
3752;DHT22;50827;47.014;7.652;2024-02-21T11:44:39;9.90;99.90
3752;DHT22;50827;47.014;7.652;2024-02-21T11:47:09;9.90;99.90
3752;DHT22;50827;47.014;7.652;2024-02-21T11:49:45;10.00;99.90
3752;DHT22;50827;47.014;7.652;2024-02-21T11:52:13;10.10;99.90
3752;DHT22;50827;47.014;7.652;2024-02-21T11:54:42;10.10;99.90
3752;DHT22;50827;47.014;7.652;2024-02-21T11:57:09;10.10;99.90
3752;DHT22;50827;47.014;7.652;2024-02-21T11:59:36;10.10;99.90
3752;DHT22;50827;47.014;7.652;2024-02-21T12:02:03;10.20;99.90
3752;DHT22;50827;47.014;7.652;2024-02-21T12:04:30;10.20;99.90
3752;DHT22;50827;47.014;7.652;2024-02-21T12:06:58;10.20;99.90
3752;DHT22;50827;47.014;7.652;2024-02-21T12:09:25;10.30;99.90
3752;DHT22;50827;47.014;7.652;2024-02-21T12:12:03;10.30;99.90
3752;DHT22;50827;47.014;7.652;2024-02-21T12:14:33;10.40;99.90
3752;DHT22;50827;47.014;7.652;2024-02-21T12:17:00;10.40;99.90
3752;DHT22;50827;47.014;7.652;2024-02-21T12:19:31;10.40;99.90
3752;DHT22;50827;47.014;7.652;2024-02-21T12:21:59;10.40;99.90
3752;DHT22;50827;47.014;7.652;2024-02-21T12:24:28;10.40;99.90
3752;DHT22;50827;47.014;7.652;2024-02-21T12:26:56;10.40;99.90
3752;DHT22;50827;47.014;7.652;2024-02-21T12:29:26;10.40;99.90
3752;DHT22;50827;47.014;7.652;2024-02-21T12:31:54;10.40;99.90
3752;DHT22;50827;47.014;7.652;2024-02-21T12:34:22;10.50;99.90
3752;DHT22;50827;47.014;7.652;2024-02-21T12:37:04;10.50;99.90
3752;DHT22;50827;47.014;7.652;2024-02-21T12:39:31;10.50;99.90
3752;DHT22;50827;47.014;7.652;2024-02-21T12:41:59;10.50;99.90
3752;DHT22;50827;47.014;7.652;2024-02-21T12:44:26;10.50;99.90
3752;DHT22;50827;47.014;7.652;2024-02-21T12:46:53;10.60;99.90
3752;DHT22;50827;47.014;7.652;2024-02-21T12:49:22;10.60;99.90
3752;DHT22;50827;47.014;7.652;2024-02-21T12:51:49;10.60;99.90
3752;DHT22;50827;47.014;7.652;2024-02-21T12:54:16;10.60;99.90
3752;DHT22;50827;47.014;7.652;2024-02-21T12:56:42;10.60;99.90
3752;DHT22;50827;47.014;7.652;2024-02-21T12:59:09;10.60;99.90
3752;DHT22;50827;47.014;7.652;2024-02-21T13:01:37;10.70;99.90
3752;DHT22;50827;47.014;7.652;2024-02-21T13:04:05;10.70;99.90
3752;DHT22;50827;47.014;7.652;2024-02-21T13:06:32;10.70;99.90
3752;DHT22;50827;47.014;7.652;2024-02-21T13:08:59;10.70;99.90
3752;DHT22;50827;47.014;7.652;2024-02-21T13:11:28;10.70;99.90
3752;DHT22;50827;47.014;7.652;2024-02-21T13:13:58;10.80;99.90
3752;DHT22;50827;47.014;7.652;2024-02-21T13:16:25;10.80;99.90
3752;DHT22;50827;47.014;7.652;2024-02-21T13:18:53;10.80;99.90
3752;DHT22;50827;47.014;7.652;2024-02-21T13:21:20;10.80;99.90
3752;DHT22;50827;47.014;7.652;2024-02-21T13:23:47;10.90;99.90
3752;DHT22;50827;47.014;7.652;2024-02-21T13:26:14;10.80;99.90
3752;DHT22;50827;47.014;7.652;2024-02-21T13:28:42;10.90;99.90
3752;DHT22;50827;47.014;7.652;2024-02-21T13:31:11;10.90;99.90
3752;DHT22;50827;47.014;7.652;2024-02-21T13:33:38;10.90;99.90
3752;DHT22;50827;47.014;7.652;2024-02-21T13:36:05;10.90;99.90
3752;DHT22;50827;47.014;7.652;2024-02-21T13:38:32;10.90;99.90
3752;DHT22;50827;47.014;7.652;2024-02-21T13:40:59;10.90;99.90
3752;DHT22;50827;47.014;7.652;2024-02-21T13:43:27;10.90;99.90
3752;DHT22;50827;47.014;7.652;2024-02-21T13:46:01;11.00;99.90
3752;DHT22;50827;47.014;7.652;2024-02-21T13:48:31;11.00;99.90
3752;DHT22;50827;47.014;7.652;2024-02-21T13:51:00;11.00;99.90
3752;DHT22;50827;47.014;7.652;2024-02-21T13:53:28;11.00;99.90
3752;DHT22;50827;47.014;7.652;2024-02-21T13:55:55;11.00;99.90
3752;DHT22;50827;47.014;7.652;2024-02-21T13:58:22;11.10;99.90
3752;DHT22;50827;47.014;7.652;2024-02-21T14:00:49;11.10;99.90
3752;DHT22;50827;47.014;7.652;2024-02-21T14:03:17;11.10;99.90
3752;DHT22;50827;47.014;7.652;2024-02-21T14:05:45;11.20;99.90
3752;DHT22;50827;47.014;7.652;2024-02-21T14:08:14;11.20;99.90
3752;DHT22;50827;47.014;7.652;2024-02-21T14:10:42;11.20;99.90
3752;DHT22;50827;47.014;7.652;2024-02-21T14:13:09;11.20;99.90
3752;DHT22;50827;47.014;7.652;2024-02-21T14:15:35;11.20;99.90
3752;DHT22;50827;47.014;7.652;2024-02-21T14:18:04;11.20;99.90
3752;DHT22;50827;47.014;7.652;2024-02-21T14:20:35;11.30;99.90
3752;DHT22;50827;47.014;7.652;2024-02-21T14:23:03;11.30;99.90
3752;DHT22;50827;47.014;7.652;2024-02-21T14:25:31;11.30;99.90
3752;DHT22;50827;47.014;7.652;2024-02-21T14:28:00;11.30;99.90
3752;DHT22;50827;47.014;7.652;2024-02-21T14:30:28;11.40;99.90
3752;DHT22;50827;47.014;7.652;2024-02-21T14:32:55;11.40;99.90
3752;DHT22;50827;47.014;7.652;2024-02-21T14:35:22;11.30;99.90
3752;DHT22;50827;47.014;7.652;2024-02-21T14:37:49;11.40;99.90
3752;DHT22;50827;47.014;7.652;2024-02-21T14:40:16;11.40;99.90
3752;DHT22;50827;47.014;7.652;2024-02-21T14:42:42;11.40;99.90
3752;DHT22;50827;47.014;7.652;2024-02-21T14:45:09;11.50;99.90
3752;DHT22;50827;47.014;7.652;2024-02-21T14:47:36;11.50;99.90
3752;DHT22;50827;47.014;7.652;2024-02-21T14:50:03;11.50;99.90
3752;DHT22;50827;47.014;7.652;2024-02-21T14:52:32;11.50;99.90
3752;DHT22;50827;47.014;7.652;2024-02-21T14:54:59;11.50;99.90
3752;DHT22;50827;47.014;7.652;2024-02-21T14:57:29;11.50;99.90
3752;DHT22;50827;47.014;7.652;2024-02-21T14:59:56;11.70;99.90
3752;DHT22;50827;47.014;7.652;2024-02-21T15:02:25;11.60;99.90
3752;DHT22;50827;47.014;7.652;2024-02-21T15:04:54;11.60;99.90
3752;DHT22;50827;47.014;7.652;2024-02-21T15:07:21;11.60;99.90
3752;DHT22;50827;47.014;7.652;2024-02-21T15:09:50;11.50;99.90
3752;DHT22;50827;47.014;7.652;2024-02-21T15:12:18;11.60;99.90
3752;DHT22;50827;47.014;7.652;2024-02-21T15:14:44;11.50;99.90
3752;DHT22;50827;47.014;7.652;2024-02-21T15:17:11;11.50;99.90
3752;DHT22;50827;47.014;7.652;2024-02-21T15:19:39;11.60;99.90
3752;DHT22;50827;47.014;7.652;2024-02-21T15:22:11;11.50;99.90
3752;DHT22;50827;47.014;7.652;2024-02-21T15:24:40;11.60;99.90
3752;DHT22;50827;47.014;7.652;2024-02-21T15:27:08;11.60;99.90
3752;DHT22;50827;47.014;7.652;2024-02-21T15:29:35;11.60;99.90
3752;DHT22;50827;47.014;7.652;2024-02-21T15:32:05;11.70;99.90
3752;DHT22;50827;47.014;7.652;2024-02-21T15:34:32;11.60;99.90
3752;DHT22;50827;47.014;7.652;2024-02-21T15:37:00;11.70;99.90
3752;DHT22;50827;47.014;7.652;2024-02-21T15:39:27;11.60;99.90
3752;DHT22;50827;47.014;7.652;2024-02-21T15:41:54;11.60;99.90
3752;DHT22;50827;47.014;7.652;2024-02-21T15:44:21;11.70;99.90
3752;DHT22;50827;47.014;7.652;2024-02-21T15:46:48;11.60;99.90
3752;DHT22;50827;47.014;7.652;2024-02-21T15:49:15;11.60;99.90
3752;DHT22;50827;47.014;7.652;2024-02-21T15:51:42;11.60;99.90
3752;DHT22;50827;47.014;7.652;2024-02-21T15:54:09;11.50;99.90
3752;DHT22;50827;47.014;7.652;2024-02-21T15:56:36;11.50;99.90
3752;DHT22;50827;47.014;7.652;2024-02-21T15:59:03;11.40;99.90
3752;DHT22;50827;47.014;7.652;2024-02-21T16:01:31;11.50;99.90
3752;DHT22;50827;47.014;7.652;2024-02-21T16:04:02;11.40;99.90
3752;DHT22;50827;47.014;7.652;2024-02-21T16:06:29;11.40;99.90
3752;DHT22;50827;47.014;7.652;2024-02-21T16:08:55;11.40;99.90
3752;DHT22;50827;47.014;7.652;2024-02-21T16:11:22;11.40;99.90